createdAt,value
2018-01-14T00:00:46.736Z,10.93
2018-01-14T00:03:14.489Z,11.70
2018-01-14T00:05:42.257Z,11.07
2018-01-14T00:08:10.080Z,11.70
2018-01-14T00:10:38.334Z,10.63
2018-01-14T00:13:06.281Z,10.83
2018-01-14T00:15:33.884Z,12.47
2018-01-14T00:18:01.475Z,12.23
2018-01-14T00:20:29.073Z,13.77
2018-01-14T00:22:57.121Z,13.90
2018-01-14T00:25:24.994Z,13.10
2018-01-14T00:27:52.576Z,11.57
2018-01-14T00:30:22.782Z,11.43
2018-01-14T00:32:50.379Z,12.17
2018-01-14T00:35:18.103Z,12.47
2018-01-14T00:37:46.155Z,12.47
2018-01-14T00:40:14.170Z,12.30
2018-01-14T00:42:41.774Z,13.13
2018-01-14T00:45:10.622Z,11.70
2018-01-14T00:47:39.199Z,11.80
2018-01-14T00:50:07.059Z,11.70
2018-01-14T00:52:35.160Z,11.70
2018-01-14T00:55:02.758Z,12.50
2018-01-14T00:57:31.592Z,12.03
2018-01-14T00:59:59.994Z,9.23
2018-01-14T01:02:29.233Z,12.00
2018-01-14T01:04:56.848Z,11.80
2018-01-14T01:07:25.380Z,10.43
2018-01-14T01:09:52.971Z,12.37
2018-01-14T01:12:21.231Z,13.33
2018-01-14T01:14:49.717Z,13.63
2018-01-14T01:17:17.299Z,12.70
2018-01-14T01:19:44.878Z,10.93
2018-01-14T01:22:13.619Z,12.90
2018-01-14T01:24:41.182Z,11.87
2018-01-14T01:27:08.861Z,12.53
2018-01-14T01:29:37.749Z,12.97
2018-01-14T01:32:05.400Z,12.00
2018-01-14T01:34:33.478Z,12.30
2018-01-14T01:37:01.108Z,12.47
2018-01-14T01:39:28.913Z,11.57
2018-01-14T01:41:57.281Z,12.33
2018-01-14T01:44:25.047Z,10.47
2018-01-14T01:46:52.634Z,12.27
2018-01-14T01:49:21.254Z,12.30
2018-01-14T01:51:49.555Z,11.67
2018-01-14T01:54:17.182Z,10.97
2018-01-14T01:56:45.004Z,9.50
2018-01-14T01:59:12.923Z,12.33
2018-01-14T02:01:41.231Z,11.60
2018-01-14T02:04:09.119Z,10.50
2018-01-14T02:06:37.799Z,11.70
2018-01-14T02:09:07.026Z,11.57
2018-01-14T02:11:34.604Z,10.57
2018-01-14T02:14:02.849Z,9.83
2018-01-14T02:16:31.587Z,10.47
2018-01-14T02:18:59.184Z,10.23
2018-01-14T02:21:26.822Z,11.43
2018-01-14T02:23:54.405Z,10.77
2018-01-14T02:26:22.184Z,9.63
2018-01-14T02:28:50.687Z,10.23
2018-01-14T02:31:18.328Z,9.50
2018-01-14T02:33:46.830Z,9.57
2018-01-14T02:36:14.882Z,12.90
2018-01-14T02:38:42.748Z,11.00
2018-01-14T02:41:10.840Z,9.80
2018-01-14T02:43:41.559Z,11.20
2018-01-14T02:46:10.452Z,9.47
2018-01-14T02:48:38.037Z,9.30
2018-01-14T02:51:05.871Z,9.83
2018-01-14T02:53:34.243Z,8.60
2018-01-14T02:56:02.126Z,9.20
2018-01-14T02:58:29.994Z,8.73
2018-01-14T03:00:58.785Z,9.70
2018-01-14T03:03:26.649Z,9.93
2018-01-14T03:05:54.402Z,9.00
2018-01-14T03:08:21.982Z,9.47
2018-01-14T03:10:49.576Z,8.10
2018-01-14T03:13:18.133Z,9.63
2018-01-14T03:15:46.556Z,8.43
2018-01-14T03:18:14.385Z,9.00
2018-01-14T03:20:42.162Z,8.50
2018-01-14T03:23:10.103Z,9.40
2018-01-14T03:25:38.740Z,8.83
2018-01-14T03:28:06.553Z,8.40
2018-01-14T03:30:34.202Z,7.90
2018-01-14T03:33:02.276Z,8.43
2018-01-14T03:35:29.940Z,8.77
2018-01-14T03:37:57.608Z,9.00
2018-01-14T03:40:25.914Z,10.40
2018-01-14T03:42:54.802Z,9.53
2018-01-14T03:45:23.201Z,9.33
2018-01-14T03:47:51.741Z,8.13
2018-01-14T03:50:19.609Z,9.20
2018-01-14T03:52:48.122Z,9.10
2018-01-14T03:55:15.964Z,8.37
2018-01-14T04:13:07.192Z,8.30
2018-01-14T04:15:34.831Z,8.00
2018-01-14T04:18:03.304Z,7.27
2018-01-14T04:20:31.186Z,6.80
2018-01-14T04:22:58.820Z,8.10
2018-01-14T04:25:26.632Z,8.90
2018-01-14T04:27:54.474Z,7.90
2018-01-14T04:30:22.074Z,8.60
2018-01-14T04:32:49.757Z,9.10
2018-01-14T04:35:17.786Z,7.37
2018-01-14T04:37:46.681Z,9.00
2018-01-14T04:40:15.059Z,6.50
2018-01-14T04:42:43.031Z,9.10
2018-01-14T04:45:11.282Z,8.40
2018-01-14T04:47:38.953Z,8.93
2018-01-14T04:50:07.659Z,9.63
2018-01-14T04:52:36.027Z,8.20
2018-01-14T04:55:03.622Z,8.57
2018-01-14T04:57:31.354Z,7.30
2018-01-14T05:00:02.006Z,8.53
2018-01-14T05:02:30.834Z,9.03
2018-01-14T05:04:58.418Z,8.27
2018-01-14T05:07:26.618Z,8.53
2018-01-14T05:09:55.098Z,8.60
2018-01-14T05:12:23.573Z,9.60
2018-01-14T05:14:51.464Z,8.07
2018-01-14T05:17:19.338Z,8.33
2018-01-14T05:19:47.278Z,8.30
2018-01-14T05:22:15.149Z,8.40
2018-01-14T05:24:43.329Z,8.27
2018-01-14T05:27:11.928Z,8.70
2018-01-14T05:29:39.778Z,8.83
2018-01-14T05:32:08.465Z,7.90
2018-01-14T05:34:36.886Z,8.80
2018-01-14T05:37:04.475Z,8.93
2018-01-14T05:39:32.214Z,9.40
2018-01-14T05:42:00.147Z,9.47
2018-01-14T05:44:28.546Z,9.13
2018-01-14T05:46:56.126Z,8.53
2018-01-14T05:49:24.693Z,8.80
2018-01-14T05:51:52.776Z,8.37
2018-01-14T05:54:20.367Z,7.60
2018-01-14T05:56:48.373Z,9.67
2018-01-14T05:59:17.062Z,9.40
2018-01-14T06:01:45.450Z,7.90
2018-01-14T06:04:13.247Z,8.13
2018-01-14T06:06:41.707Z,8.07
2018-01-14T06:09:10.068Z,8.93
2018-01-14T06:11:37.817Z,7.67
2018-01-14T06:14:06.148Z,9.00
2018-01-14T06:16:34.165Z,7.80
2018-01-14T06:19:01.868Z,8.40
2018-01-14T06:21:30.539Z,7.60
2018-01-14T06:23:59.001Z,9.20
2018-01-14T06:26:27.357Z,8.47
2018-01-14T06:28:54.952Z,7.03
2018-01-14T06:31:22.930Z,8.13
2018-01-14T06:33:50.802Z,7.73
2018-01-14T06:36:18.508Z,8.13
2018-01-14T06:38:46.113Z,7.77
2018-01-14T06:41:13.919Z,8.27
2018-01-14T06:43:42.353Z,8.33
2018-01-14T06:46:10.122Z,7.80
2018-01-14T06:48:37.899Z,8.90
2018-01-14T06:51:05.574Z,6.87
2018-01-14T06:53:34.170Z,8.27
2018-01-14T06:56:01.925Z,7.23
2018-01-14T06:58:30.609Z,8.13
2018-01-14T07:00:58.319Z,8.23
2018-01-14T07:03:26.897Z,7.73
2018-01-14T07:05:55.527Z,7.70
2018-01-14T07:08:23.408Z,7.90
2018-01-14T07:10:51.074Z,6.20
2018-01-14T07:13:18.922Z,8.27
2018-01-14T07:15:46.704Z,8.07
2018-01-14T07:18:15.429Z,7.87
2018-01-14T07:20:43.048Z,6.90
2018-01-14T07:23:12.125Z,7.17
2018-01-14T07:25:40.091Z,9.33
2018-01-14T07:28:07.672Z,6.77
2018-01-14T07:30:35.336Z,8.87
2018-01-14T07:33:03.307Z,7.80
2018-01-14T07:35:31.147Z,7.27
2018-01-14T07:37:58.734Z,9.00
2018-01-14T07:40:26.487Z,7.73
2018-01-14T07:42:54.562Z,7.40
2018-01-14T07:45:22.464Z,9.10
2018-01-14T07:47:51.035Z,8.97
2018-01-14T07:50:18.618Z,7.77
2018-01-14T07:52:47.403Z,8.97
2018-01-14T07:55:15.339Z,8.70
2018-01-14T07:57:43.606Z,10.30
2018-01-14T08:00:11.264Z,8.50
2018-01-14T08:02:38.887Z,8.27
2018-01-14T08:05:06.465Z,8.83
2018-01-14T08:07:35.027Z,8.27
2018-01-14T08:10:02.942Z,7.17
2018-01-14T08:12:30.635Z,7.93
2018-01-14T08:15:00.549Z,8.37
2018-01-14T08:17:29.702Z,8.87
2018-01-14T08:19:57.697Z,8.70
2018-01-14T08:22:25.475Z,7.60
2018-01-14T08:24:53.229Z,7.00
2018-01-14T08:27:20.948Z,7.50
2018-01-14T08:29:48.610Z,6.97
2018-01-14T08:32:16.268Z,8.13
2018-01-14T08:34:44.598Z,6.83
2018-01-14T08:37:12.171Z,8.43
2018-01-14T08:39:39.819Z,7.20
2018-01-14T08:42:07.390Z,6.93
2018-01-14T08:44:35.023Z,6.93
2018-01-14T08:47:02.615Z,7.63
2018-01-14T08:49:30.256Z,7.43
2018-01-14T08:51:57.868Z,6.60
2018-01-14T08:54:25.482Z,7.10
2018-01-14T08:56:53.299Z,7.37
2018-01-14T08:59:20.899Z,6.23
2018-01-14T09:01:48.531Z,7.00
2018-01-14T09:04:16.232Z,7.10
2018-01-14T09:06:43.826Z,6.40
2018-01-14T09:09:11.575Z,7.77
2018-01-14T09:11:39.287Z,7.07
2018-01-14T09:14:07.040Z,7.10
2018-01-14T09:16:34.769Z,6.63
2018-01-14T09:19:02.346Z,5.60
2018-01-14T09:21:30.439Z,7.00
2018-01-14T09:23:58.232Z,6.27
2018-01-14T09:26:26.012Z,6.60
2018-01-14T09:28:53.587Z,7.97
2018-01-14T09:31:21.998Z,7.00
2018-01-14T09:33:50.351Z,6.70
2018-01-14T09:36:18.033Z,6.10
2018-01-14T09:38:47.253Z,6.30
2018-01-14T09:41:14.833Z,6.93
2018-01-14T09:43:42.660Z,7.43
2018-01-14T09:46:10.449Z,7.80
2018-01-14T09:48:38.326Z,6.13
2018-01-14T09:51:05.910Z,7.00
2018-01-14T09:53:33.654Z,6.03
2018-01-14T09:56:08.407Z,6.30
2018-01-14T10:12:01.869Z,6.33
2018-01-14T10:14:29.659Z,7.00
2018-01-14T10:16:57.315Z,6.30
2018-01-14T10:19:24.988Z,6.20
2018-01-14T10:21:54.671Z,6.63
2018-01-14T10:24:22.379Z,5.77
2018-01-14T10:26:50.016Z,6.03
2018-01-14T10:29:18.361Z,6.57
2018-01-14T10:31:46.147Z,6.63
2018-01-14T10:34:13.947Z,6.17
2018-01-14T10:36:41.616Z,6.37
2018-01-14T10:39:10.025Z,7.00
2018-01-14T10:41:37.747Z,6.07
2018-01-14T10:44:06.118Z,5.97
2018-01-14T10:46:33.764Z,7.10
2018-01-14T10:49:01.403Z,5.90
2018-01-14T10:51:29.087Z,6.10
2018-01-14T10:53:57.457Z,6.93
2018-01-14T10:56:25.342Z,6.23
2018-01-14T10:58:53.225Z,7.03
2018-01-14T11:01:26.948Z,6.50
2018-01-14T11:03:54.559Z,6.80
2018-01-14T11:06:22.137Z,7.10
2018-01-14T11:08:50.031Z,6.83
2018-01-14T11:11:18.394Z,5.33
2018-01-14T11:13:46.047Z,6.07
2018-01-14T11:16:13.798Z,5.97
2018-01-14T11:18:41.391Z,5.93
2018-01-14T11:21:09.124Z,5.93
2018-01-14T11:23:37.205Z,5.87
2018-01-14T11:26:04.778Z,7.00
2018-01-14T11:28:39.746Z,6.57
2018-01-14T11:31:08.087Z,5.83
2018-01-14T11:33:35.686Z,6.60
2018-01-14T11:36:04.184Z,6.70
2018-01-14T11:38:32.264Z,6.57
2018-01-14T11:41:00.143Z,6.53
2018-01-14T11:43:27.938Z,6.03
2018-01-14T11:45:55.502Z,6.50
2018-01-14T11:48:23.245Z,6.20
2018-01-14T11:50:51.191Z,6.07
2018-01-14T11:53:18.951Z,6.23
2018-01-14T11:55:46.522Z,7.40
2018-01-14T11:58:14.509Z,6.00
2018-01-14T12:00:42.381Z,5.70
2018-01-14T12:03:11.270Z,6.37
2018-01-14T12:05:39.061Z,6.30
2018-01-14T12:08:07.602Z,6.03
2018-01-14T12:10:35.264Z,5.37
2018-01-14T12:13:03.411Z,5.90
2018-01-14T12:15:31.844Z,5.70
2018-01-14T12:17:59.423Z,6.80
2018-01-14T12:20:27.007Z,5.70
2018-01-14T12:22:55.469Z,6.60
2018-01-14T12:25:23.721Z,6.90
2018-01-14T12:27:51.344Z,5.37
2018-01-14T12:30:19.757Z,6.53
2018-01-14T12:33:07.799Z,5.40
2018-01-14T12:35:35.633Z,6.70
2018-01-14T12:38:04.314Z,6.87
2018-01-14T12:40:31.908Z,6.00
2018-01-14T12:43:01.201Z,6.50
2018-01-14T12:45:29.748Z,6.37
2018-01-14T12:47:58.152Z,5.10
2018-01-14T12:50:25.934Z,5.27
2018-01-14T12:52:53.710Z,5.93
2018-01-14T12:55:22.029Z,7.10
2018-01-14T12:57:49.667Z,5.90
2018-01-14T13:00:19.088Z,6.30
2018-01-14T13:02:47.700Z,6.40
2018-01-14T13:05:15.364Z,6.30
2018-01-14T13:07:43.193Z,5.10
2018-01-14T13:10:11.223Z,6.70
2018-01-14T13:12:38.829Z,5.50
2018-01-14T13:15:06.491Z,6.40
2018-01-14T13:17:34.362Z,6.00
2018-01-14T13:20:02.959Z,5.60
2018-01-14T13:22:30.987Z,5.67
2018-01-14T13:24:58.731Z,5.30
2018-01-14T13:27:27.732Z,5.03
2018-01-14T13:29:55.697Z,5.70
2018-01-14T13:32:23.712Z,5.53
2018-01-14T13:34:51.462Z,6.30
2018-01-14T13:37:19.946Z,6.00
2018-01-14T13:39:47.560Z,5.83
2018-01-14T13:42:15.941Z,4.73
2018-01-14T13:44:43.927Z,5.70
2018-01-14T13:47:11.932Z,5.00
2018-01-14T13:49:39.687Z,5.80
2018-01-14T13:52:07.636Z,5.13
2018-01-14T13:54:36.291Z,6.33
2018-01-14T13:57:03.878Z,5.00
2018-01-14T13:59:31.542Z,5.47
2018-01-14T14:01:59.212Z,5.60
2018-01-14T14:04:26.977Z,5.10
2018-01-14T14:06:54.979Z,5.50
2018-01-14T14:09:23.910Z,6.07
2018-01-14T14:11:51.547Z,4.90
2018-01-14T14:14:20.013Z,5.17
2018-01-14T14:16:47.701Z,5.30
2018-01-14T14:19:16.499Z,5.77
2018-01-14T14:21:44.267Z,4.77
2018-01-14T14:24:11.881Z,6.40
2018-01-14T14:26:39.520Z,5.10
2018-01-14T14:29:07.473Z,5.00
2018-01-14T14:31:35.323Z,5.30
2018-01-14T14:34:04.009Z,6.20
2018-01-14T14:36:32.411Z,5.20
2018-01-14T14:39:00.144Z,4.50
2018-01-14T14:41:29.078Z,5.27
2018-01-14T14:43:56.682Z,5.27
2018-01-14T14:46:24.305Z,5.43
2018-01-14T14:48:52.016Z,5.63
2018-01-14T14:51:19.621Z,5.70
2018-01-14T14:53:47.286Z,4.70
2018-01-14T14:56:15.045Z,4.60
2018-01-14T14:58:42.608Z,5.10
2018-01-14T15:01:10.418Z,5.57
2018-01-14T15:03:38.349Z,5.20
2018-01-14T15:06:05.988Z,4.83
2018-01-14T15:08:33.650Z,5.03
2018-01-14T15:11:01.224Z,5.20
2018-01-14T15:13:28.798Z,4.50
2018-01-14T15:15:56.562Z,5.80
2018-01-14T15:18:24.330Z,5.20
2018-01-14T15:20:51.945Z,5.90
2018-01-14T15:23:19.661Z,5.53
2018-01-14T15:25:47.384Z,6.27
2018-01-14T15:28:16.229Z,5.90
2018-01-14T15:30:44.185Z,4.90
2018-01-14T15:33:11.779Z,4.90
2018-01-14T15:35:40.193Z,5.40
2018-01-14T15:38:08.106Z,5.70
2018-01-14T15:40:36.656Z,6.07
2018-01-14T15:43:04.341Z,6.10
2018-01-14T15:45:32.136Z,5.83
2018-01-14T15:47:59.835Z,5.67
2018-01-14T15:50:28.494Z,5.53
2018-01-14T15:52:57.208Z,6.77
2018-01-14T15:55:25.634Z,6.37
2018-01-14T15:57:53.302Z,5.67
2018-01-14T16:00:21.006Z,6.90
2018-01-14T16:02:48.737Z,6.27
2018-01-14T16:05:17.213Z,6.17
2018-01-14T16:07:45.532Z,5.77
2018-01-14T16:10:14.252Z,6.90
2018-01-14T16:12:42.236Z,6.63
2018-01-14T16:15:10.173Z,6.70
2018-01-14T16:17:38.623Z,5.63
2018-01-14T16:20:06.443Z,6.00
2018-01-14T16:22:35.014Z,6.40
2018-01-14T16:25:02.629Z,6.30
2018-01-14T16:27:30.534Z,7.03
2018-01-14T16:29:58.261Z,7.60
2018-01-14T16:32:26.466Z,7.00
2018-01-14T16:34:54.848Z,7.67
2018-01-14T16:37:23.381Z,6.73
2018-01-14T16:39:51.019Z,6.07
2018-01-14T16:42:18.587Z,7.40
2018-01-14T16:44:46.301Z,7.27
2018-01-14T16:47:14.820Z,7.60
2018-01-14T16:49:42.520Z,6.40
2018-01-14T16:52:10.302Z,7.23
2018-01-14T16:54:37.991Z,8.03
2018-01-14T16:57:11.548Z,5.70
2018-01-14T16:59:40.146Z,6.87
2018-01-14T17:02:08.138Z,7.23
2018-01-14T17:04:35.795Z,7.07
2018-01-14T17:07:04.124Z,6.33
2018-01-14T17:09:32.045Z,7.10
2018-01-14T17:12:00.245Z,7.17
2018-01-14T17:14:28.414Z,8.40
2018-01-14T17:16:56.236Z,7.60
2018-01-14T17:19:24.065Z,7.00
2018-01-14T17:21:51.717Z,7.00
2018-01-14T17:24:19.310Z,8.40
2018-01-14T17:26:46.908Z,7.27
2018-01-14T17:29:14.566Z,7.00
2018-01-14T17:31:43.188Z,8.03
2018-01-14T17:34:11.125Z,7.10
2018-01-14T17:36:39.557Z,9.93
2018-01-14T17:39:07.178Z,9.90
2018-01-14T17:41:35.347Z,12.47
2018-01-14T17:44:03.917Z,9.80
2018-01-14T17:46:31.628Z,8.90
2018-01-14T17:48:59.423Z,8.20
2018-01-14T17:51:27.337Z,6.70
2018-01-14T17:53:56.590Z,8.07
2018-01-14T17:56:24.940Z,8.37
2018-01-14T17:58:52.557Z,7.53
2018-01-14T18:01:21.808Z,8.83
2018-01-14T18:03:50.142Z,8.20
2018-01-14T18:06:17.816Z,8.37
2018-01-14T18:08:45.460Z,8.00
2018-01-14T18:11:13.387Z,8.23
2018-01-14T18:13:41.187Z,8.07
2018-01-14T18:16:08.932Z,7.60
2018-01-14T18:18:36.575Z,8.63
2018-01-14T18:21:05.547Z,9.13
2018-01-14T18:23:33.914Z,7.70
2018-01-14T18:26:02.460Z,7.43
2018-01-14T18:28:30.060Z,8.40
2018-01-14T18:30:59.356Z,6.33
2018-01-14T18:33:27.455Z,7.80
2018-01-14T18:35:55.230Z,8.73
2018-01-14T18:38:22.853Z,8.83
2018-01-14T18:40:51.520Z,8.97
2018-01-14T18:43:19.328Z,7.60
2018-01-14T18:46:00.406Z,7.60
2018-01-14T18:48:29.225Z,9.00
2018-01-14T18:50:57.128Z,7.70
2018-01-14T18:53:24.989Z,7.20
2018-01-14T18:55:52.972Z,5.97
2018-01-14T18:58:20.891Z,8.87
2018-01-14T19:00:48.884Z,7.47
2018-01-14T19:03:18.381Z,7.90
2018-01-14T19:05:47.440Z,8.90
2018-01-14T19:08:15.904Z,9.30
2018-01-14T19:10:44.192Z,8.37
2018-01-14T19:13:12.159Z,7.37
2018-01-14T19:15:40.998Z,7.83
2018-01-14T19:18:11.269Z,8.40
2018-01-14T19:20:39.405Z,8.20
2018-01-14T19:23:08.365Z,8.93
2018-01-14T19:25:36.434Z,8.57
2018-01-14T19:28:08.223Z,7.87
2018-01-14T19:30:37.824Z,8.13
2018-01-14T19:33:07.808Z,8.60
2018-01-14T19:35:35.714Z,7.57
2018-01-14T19:38:05.452Z,8.47
2018-01-14T19:40:36.532Z,8.13
2018-01-14T19:43:04.246Z,8.50
2018-01-14T19:45:32.574Z,7.50
2018-01-14T19:48:01.205Z,7.97
2018-01-14T19:50:29.313Z,7.33
2018-01-14T19:52:58.561Z,7.77
2018-01-14T19:55:27.419Z,8.70
2018-01-14T19:57:57.367Z,8.63
2018-01-14T20:00:27.075Z,8.30
2018-01-14T20:02:56.806Z,8.75
2018-01-14T20:05:26.413Z,12.10
2018-01-14T20:07:55.972Z,10.18
2018-01-14T20:10:27.544Z,10.75
2018-01-14T20:12:57.586Z,10.23
2018-01-14T20:15:26.912Z,9.95
2018-01-14T20:17:56.830Z,9.07
2018-01-14T20:20:25.720Z,10.60
2018-01-14T20:22:55.426Z,10.30
2018-01-14T20:25:25.420Z,9.68
2018-01-14T20:27:55.092Z,10.57
2018-01-14T20:30:23.839Z,9.85
2018-01-14T20:32:52.377Z,9.27
2018-01-14T20:35:20.617Z,11.15
2018-01-14T20:37:50.392Z,10.40
2018-01-14T20:40:19.396Z,10.65
2018-01-14T20:42:48.861Z,10.52
2018-01-14T20:45:16.968Z,9.27
2018-01-14T20:47:44.937Z,9.30
2018-01-14T20:50:13.108Z,10.13
2018-01-14T20:52:41.910Z,9.10
2018-01-14T20:55:09.974Z,10.02
2018-01-14T20:57:39.568Z,9.07
2018-01-14T21:00:08.393Z,8.20
2018-01-14T21:02:38.035Z,8.00
2018-01-14T21:05:06.603Z,8.50
2018-01-14T21:07:34.584Z,8.57
2018-01-14T21:10:03.252Z,7.47
2018-01-14T21:12:32.003Z,7.70
2018-01-14T21:14:59.775Z,8.98
2018-01-14T21:17:28.022Z,6.65
2018-01-14T21:19:56.176Z,6.32
2018-01-14T21:22:26.319Z,7.65
2018-01-14T21:24:54.640Z,7.35
2018-01-14T21:27:23.341Z,8.93
2018-01-14T21:29:53.353Z,7.82
2018-01-14T21:32:21.108Z,8.10
2018-01-14T21:34:49.352Z,8.18
2018-01-14T21:37:16.941Z,7.62
2018-01-14T21:39:44.579Z,7.65
2018-01-14T21:42:12.730Z,7.97
2018-01-14T21:44:41.601Z,7.70
2018-01-14T21:47:09.694Z,6.85
2018-01-14T21:49:37.331Z,8.13
2018-01-14T21:52:05.336Z,7.47
2018-01-14T21:54:33.190Z,7.12
2018-01-14T21:57:01.132Z,7.70
2018-01-14T21:59:30.016Z,6.35
2018-01-14T22:01:58.011Z,7.28
2018-01-14T22:04:26.455Z,7.90
2018-01-14T22:06:54.669Z,8.73
2018-01-14T22:09:23.188Z,6.72
2018-01-14T22:11:50.882Z,7.68
2018-01-14T22:14:19.623Z,7.95
2018-01-14T22:16:47.846Z,7.22
2018-01-14T22:19:15.856Z,7.45
2018-01-14T22:21:44.434Z,8.25
2018-01-14T22:24:12.450Z,8.05
2018-01-14T22:26:40.342Z,8.10
2018-01-14T22:29:08.101Z,8.60
2018-01-14T22:31:36.070Z,7.65
2018-01-14T22:34:03.921Z,9.90
2018-01-14T22:36:31.539Z,7.72
2018-01-14T22:38:59.491Z,8.38
2018-01-14T22:41:28.178Z,7.82
2018-01-14T22:43:57.229Z,8.77
2018-01-14T22:46:25.070Z,8.15
2018-01-14T22:48:53.593Z,9.02
2018-01-14T22:51:21.378Z,8.63
2018-01-14T22:53:49.380Z,8.25
2018-01-14T22:56:17.313Z,8.77
2018-01-14T22:58:45.619Z,8.00
2018-01-14T23:01:14.172Z,8.07
2018-01-14T23:03:42.553Z,7.07
2018-01-14T23:06:10.170Z,8.10
2018-01-14T23:08:38.481Z,7.68
2018-01-14T23:11:06.373Z,7.35
2018-01-14T23:13:33.993Z,8.25
2018-01-14T23:16:02.085Z,7.70
2018-01-14T23:18:30.687Z,7.62
2018-01-14T23:20:58.282Z,8.13
2018-01-14T23:23:26.927Z,8.05
2018-01-14T23:25:54.814Z,8.25
2018-01-14T23:28:23.144Z,7.62
2018-01-14T23:30:50.840Z,8.52
2018-01-14T23:33:18.548Z,7.97
2018-01-14T23:35:47.101Z,8.10
2018-01-14T23:38:15.709Z,7.35
2018-01-14T23:40:43.343Z,7.90
2018-01-14T23:43:10.933Z,7.43
2018-01-14T23:45:40.025Z,8.35
2018-01-14T23:48:07.840Z,6.25
2018-01-14T23:50:35.509Z,7.45
2018-01-14T23:53:03.273Z,8.20
2018-01-14T23:55:31.193Z,8.43
2018-01-14T23:57:59.112Z,7.10
